This is the latest recevied weather packets stored in our database for station/object JI1UWB-13. If no packets are shown the sender has not sent any weather packets the latest 10 day(s).
| Time | Temp. | Humidity | Pressure | Rain* | Wind** | Luminosity | Snow |
|---|---|---|---|---|---|---|---|
| 1777271138 | 20° C | 64% | 1005.7 hPa | 0 mm | - | - | - |
| 1777266916 | 23.33° C | 58% | 1004.8 hPa | 0 mm | - | - | - |
| 1777262718 | 22.22° C | 68% | 1004.7 hPa | 0 mm | - | - | - |
| 1777259119 | 18.33° C | 93% | 1005 hPa | 0 mm | - | - | - |
| 1777257919 | 16.67° C | 100% | 1005.4 hPa | 0 mm | - | - | - |
| 1777257318 | 15.56° C | 100% | 1005.6 hPa | 0.25 mm | - | - | - |
| 1777252519 | 12.78° C | 100% | 1005 hPa | 3.05 mm | - | - | - |
| 1777251918 | 12.78° C | 100% | 1005.8 hPa | 3.56 mm | - | - | - |
| 1777250719 | 12.78° C | 100% | 1006.6 hPa | 3.3 mm | - | - | - |
| 1777248317 | 13.33° C | 100% | 1007.2 hPa | 2.54 mm | - | - | - |
| 1777246516 | 13.33° C | 100% | 1007.5 hPa | 2.79 mm | - | - | - |
| 1777244717 | 13.33° C | 100% | 1007.8 hPa | 3.81 mm | - | - | - |
| 1777244119 | 13.33° C | 100% | 1008 hPa | 4.06 mm | - | - | - |
| 1777242318 | 13.33° C | 100% | 1008.7 hPa | 5.08 mm | - | - | - |
| 1777237516 | 14.44° C | 100% | 1009.5 hPa | 4.06 mm | - | - | - |
| 1777235719 | 15° C | 100% | 1009.8 hPa | 2.79 mm | - | - | - |
| 1777230916 | 15° C | 100% | 1010.8 hPa | 1.02 mm | - | - | - |
| 1777219519 | 17.22° C | 83% | 1013.7 hPa | 0 mm | - | - | - |
| 1777218917 | 17.22° C | 82% | 1013.9 hPa | 0 mm | - | - | - |
| 1777217117 | 17.22° C | 80% | 1014.6 hPa | 0 mm | - | - | - |
| 1777209316 | 17.78° C | 74% | 1016.4 hPa | 0 mm | - | - | - |
| 1777205118 | 17.78° C | 69% | 1017.1 hPa | 0 mm | - | - | - |
| 1777203916 | 18.33° C | 68% | 1017.4 hPa | 0 mm | - | - | - |
| 1777200316 | 18.33° C | 65% | 1017.6 hPa | 0 mm | - | - | - |
| 1777199117 | 18.33° C | 65% | 1017.6 hPa | 0 mm | - | - | - |
* Rain latest hour (hover to see other rain measurements)
** Current wind speed in m/s (hover to see current wind gust speed)